Orange, California
Current Conditions -  °F | °C
As of 2:53 AM on Tuesday 21 Oct 2014 (Local Time) from KSNA Reporting Station
Clear Clear  
Wind Chill: 66°   Ceiling: Unl
Heat Index: 66°   Visibility: 10mi
Dew Point: 59°   Wind: 5mph
Humidity: 78%   Direction: 80°E
Pressure: 29.9"   Gusts: NA
Location:  33.79°N, 117.85°W
Report Text: KSNA 210953Z AUTO 08004KT 10SM CLR 19/15 A2990 RMK AO2 SLP122 T01890150 TSNO
Loading
Personal Weather Stations






























Interactive Weather Map
Tropical Storm Tracking
New forecast layout! Learn more

10-Day Weather Forecast

Advertisements
Track Severe Weather on mobile